sensor_id;sensor_type;location;lat;lon;timestamp;P1;durP1;ratioP1;P2;durP2;ratioP2
5379;SDS011;2713;42.680;23.310;2022-11-04T00:01:36;29.17;;;12.20;;
5379;SDS011;2713;42.680;23.310;2022-11-04T00:04:04;21.57;;;13.27;;
5379;SDS011;2713;42.680;23.310;2022-11-04T00:06:33;17.07;;;11.73;;
5379;SDS011;2713;42.680;23.310;2022-11-04T00:09:00;20.80;;;13.47;;
5379;SDS011;2713;42.680;23.310;2022-11-04T00:11:28;19.10;;;12.60;;
5379;SDS011;2713;42.680;23.310;2022-11-04T00:14:13;22.63;;;13.20;;
5379;SDS011;2713;42.680;23.310;2022-11-04T00:16:40;18.87;;;13.00;;
5379;SDS011;2713;42.680;23.310;2022-11-04T00:19:25;20.03;;;12.20;;
5379;SDS011;2713;42.680;23.310;2022-11-04T00:21:54;19.07;;;13.07;;
5379;SDS011;2713;42.680;23.310;2022-11-04T00:24:38;20.17;;;12.60;;
5379;SDS011;2713;42.680;23.310;2022-11-04T00:27:22;17.93;;;12.20;;
5379;SDS011;2713;42.680;23.310;2022-11-04T00:30:07;19.50;;;12.50;;
5379;SDS011;2713;42.680;23.310;2022-11-04T00:32:35;22.47;;;12.57;;
5379;SDS011;2713;42.680;23.310;2022-11-04T00:35:20;19.60;;;12.20;;
5379;SDS011;2713;42.680;23.310;2022-11-04T00:37:48;19.87;;;12.30;;
5379;SDS011;2713;42.680;23.310;2022-11-04T00:40:15;22.27;;;11.80;;
5379;SDS011;2713;42.680;23.310;2022-11-04T00:42:43;25.97;;;12.80;;
5379;SDS011;2713;42.680;23.310;2022-11-04T00:45:11;16.37;;;10.83;;
5379;SDS011;2713;42.680;23.310;2022-11-04T00:47:38;22.90;;;12.50;;
5379;SDS011;2713;42.680;23.310;2022-11-04T00:50:05;20.30;;;12.07;;
5379;SDS011;2713;42.680;23.310;2022-11-04T00:52:32;22.97;;;12.17;;
5379;SDS011;2713;42.680;23.310;2022-11-04T00:55:01;21.63;;;13.13;;
5379;SDS011;2713;42.680;23.310;2022-11-04T00:57:27;18.83;;;11.57;;
5379;SDS011;2713;42.680;23.310;2022-11-04T00:59:54;20.77;;;11.20;;
5379;SDS011;2713;42.680;23.310;2022-11-04T01:02:21;18.70;;;11.23;;
5379;SDS011;2713;42.680;23.310;2022-11-04T01:04:48;20.60;;;11.60;;
5379;SDS011;2713;42.680;23.310;2022-11-04T01:07:15;22.10;;;12.03;;
5379;SDS011;2713;42.680;23.310;2022-11-04T01:09:41;17.87;;;12.17;;
5379;SDS011;2713;42.680;23.310;2022-11-04T01:12:09;20.47;;;11.43;;
5379;SDS011;2713;42.680;23.310;2022-11-04T01:14:36;25.90;;;11.30;;
5379;SDS011;2713;42.680;23.310;2022-11-04T01:17:03;20.20;;;12.47;;
5379;SDS011;2713;42.680;23.310;2022-11-04T01:19:30;19.77;;;12.40;;
5379;SDS011;2713;42.680;23.310;2022-11-04T01:21:57;16.03;;;10.77;;
5379;SDS011;2713;42.680;23.310;2022-11-04T01:24:24;15.23;;;12.23;;
5379;SDS011;2713;42.680;23.310;2022-11-04T01:26:50;19.10;;;12.43;;
5379;SDS011;2713;42.680;23.310;2022-11-04T01:29:18;14.10;;;10.83;;
5379;SDS011;2713;42.680;23.310;2022-11-04T01:31:45;19.90;;;10.87;;
5379;SDS011;2713;42.680;23.310;2022-11-04T01:34:12;22.33;;;11.27;;
5379;SDS011;2713;42.680;23.310;2022-11-04T01:36:39;18.53;;;12.57;;
5379;SDS011;2713;42.680;23.310;2022-11-04T01:39:05;18.57;;;11.67;;
5379;SDS011;2713;42.680;23.310;2022-11-04T01:41:32;19.40;;;12.17;;
5379;SDS011;2713;42.680;23.310;2022-11-04T01:44:00;18.27;;;12.43;;
5379;SDS011;2713;42.680;23.310;2022-11-04T01:46:37;19.70;;;11.23;;
5379;SDS011;2713;42.680;23.310;2022-11-04T01:49:15;16.27;;;11.10;;
5379;SDS011;2713;42.680;23.310;2022-11-04T01:51:49;21.43;;;11.90;;
5379;SDS011;2713;42.680;23.310;2022-11-04T01:54:19;17.77;;;10.77;;
5379;SDS011;2713;42.680;23.310;2022-11-04T01:56:46;17.80;;;12.30;;
5379;SDS011;2713;42.680;23.310;2022-11-04T01:59:16;18.50;;;11.50;;
5379;SDS011;2713;42.680;23.310;2022-11-04T02:01:47;18.03;;;12.00;;
5379;SDS011;2713;42.680;23.310;2022-11-04T02:04:14;19.93;;;11.30;;
5379;SDS011;2713;42.680;23.310;2022-11-04T02:06:51;15.97;;;11.77;;
5379;SDS011;2713;42.680;23.310;2022-11-04T02:09:21;17.00;;;11.63;;
5379;SDS011;2713;42.680;23.310;2022-11-04T02:11:49;23.33;;;11.87;;
5379;SDS011;2713;42.680;23.310;2022-11-04T02:14:33;14.43;;;10.97;;
5379;SDS011;2713;42.680;23.310;2022-11-04T02:17:06;18.50;;;11.30;;
5379;SDS011;2713;42.680;23.310;2022-11-04T02:19:50;16.80;;;11.07;;
5379;SDS011;2713;42.680;23.310;2022-11-04T02:22:30;17.00;;;12.17;;
5379;SDS011;2713;42.680;23.310;2022-11-04T02:25:29;19.03;;;11.23;;
5379;SDS011;2713;42.680;23.310;2022-11-04T02:28:19;18.17;;;11.83;;
5379;SDS011;2713;42.680;23.310;2022-11-04T02:31:05;19.23;;;11.20;;
5379;SDS011;2713;42.680;23.310;2022-11-04T02:34:04;16.47;;;11.10;;
5379;SDS011;2713;42.680;23.310;2022-11-04T02:36:42;19.80;;;12.20;;
5379;SDS011;2713;42.680;23.310;2022-11-04T02:39:15;19.73;;;11.57;;
5379;SDS011;2713;42.680;23.310;2022-11-04T02:41:54;16.87;;;11.80;;
5379;SDS011;2713;42.680;23.310;2022-11-04T02:44:28;17.60;;;11.63;;
5379;SDS011;2713;42.680;23.310;2022-11-04T02:47:01;15.73;;;11.57;;
5379;SDS011;2713;42.680;23.310;2022-11-04T02:49:33;14.60;;;11.00;;
5379;SDS011;2713;42.680;23.310;2022-11-04T02:52:04;12.80;;;10.80;;
5379;SDS011;2713;42.680;23.310;2022-11-04T02:54:35;18.60;;;12.37;;
5379;SDS011;2713;42.680;23.310;2022-11-04T02:57:07;19.67;;;12.93;;
5379;SDS011;2713;42.680;23.310;2022-11-04T02:59:39;19.47;;;11.90;;
5379;SDS011;2713;42.680;23.310;2022-11-04T03:02:13;16.97;;;11.50;;
5379;SDS011;2713;42.680;23.310;2022-11-04T03:04:44;17.33;;;11.63;;
5379;SDS011;2713;42.680;23.310;2022-11-04T03:07:14;20.43;;;13.27;;
5379;SDS011;2713;42.680;23.310;2022-11-04T03:09:47;19.80;;;13.43;;
5379;SDS011;2713;42.680;23.310;2022-11-04T03:12:19;15.70;;;12.80;;
5379;SDS011;2713;42.680;23.310;2022-11-04T03:14:50;23.20;;;13.97;;
5379;SDS011;2713;42.680;23.310;2022-11-04T03:17:22;21.70;;;13.67;;
5379;SDS011;2713;42.680;23.310;2022-11-04T03:19:57;20.20;;;13.80;;
5379;SDS011;2713;42.680;23.310;2022-11-04T03:22:25;20.07;;;13.90;;
5379;SDS011;2713;42.680;23.310;2022-11-04T03:24:54;22.20;;;13.77;;
5379;SDS011;2713;42.680;23.310;2022-11-04T03:27:23;18.70;;;13.73;;
5379;SDS011;2713;42.680;23.310;2022-11-04T03:29:55;19.77;;;13.60;;
5379;SDS011;2713;42.680;23.310;2022-11-04T03:32:29;21.03;;;13.57;;
5379;SDS011;2713;42.680;23.310;2022-11-04T03:35:04;19.87;;;13.47;;
5379;SDS011;2713;42.680;23.310;2022-11-04T03:37:32;14.97;;;12.87;;
5379;SDS011;2713;42.680;23.310;2022-11-04T03:39:59;21.30;;;12.37;;
5379;SDS011;2713;42.680;23.310;2022-11-04T03:42:26;17.60;;;14.37;;
5379;SDS011;2713;42.680;23.310;2022-11-04T03:44:56;23.30;;;14.83;;
5379;SDS011;2713;42.680;23.310;2022-11-04T03:47:24;19.70;;;12.97;;
5379;SDS011;2713;42.680;23.310;2022-11-04T03:49:56;21.37;;;13.60;;
5379;SDS011;2713;42.680;23.310;2022-11-04T03:52:28;20.50;;;14.43;;
5379;SDS011;2713;42.680;23.310;2022-11-04T03:54:55;19.17;;;13.33;;
5379;SDS011;2713;42.680;23.310;2022-11-04T03:57:29;19.50;;;14.10;;
5379;SDS011;2713;42.680;23.310;2022-11-04T04:00:06;22.40;;;14.53;;
5379;SDS011;2713;42.680;23.310;2022-11-04T04:05:37;20.23;;;14.27;;
5379;SDS011;2713;42.680;23.310;2022-11-04T04:08:11;18.73;;;13.33;;
5379;SDS011;2713;42.680;23.310;2022-11-04T04:10:46;21.00;;;14.10;;
5379;SDS011;2713;42.680;23.310;2022-11-04T04:13:22;20.37;;;13.53;;
5379;SDS011;2713;42.680;23.310;2022-11-04T04:16:08;20.43;;;13.60;;
5379;SDS011;2713;42.680;23.310;2022-11-04T04:18:39;18.77;;;13.83;;
5379;SDS011;2713;42.680;23.310;2022-11-04T04:21:12;17.57;;;14.63;;
5379;SDS011;2713;42.680;23.310;2022-11-04T04:23:42;21.53;;;14.03;;
5379;SDS011;2713;42.680;23.310;2022-11-04T04:26:30;20.00;;;14.23;;
5379;SDS011;2713;42.680;23.310;2022-11-04T04:29:16;19.80;;;13.90;;
5379;SDS011;2713;42.680;23.310;2022-11-04T04:31:44;21.47;;;14.10;;
5379;SDS011;2713;42.680;23.310;2022-11-04T04:34:22;25.20;;;14.40;;
5379;SDS011;2713;42.680;23.310;2022-11-04T04:36:54;20.27;;;14.40;;
5379;SDS011;2713;42.680;23.310;2022-11-04T04:39:27;25.37;;;15.20;;
5379;SDS011;2713;42.680;23.310;2022-11-04T04:42:19;27.47;;;15.00;;
5379;SDS011;2713;42.680;23.310;2022-11-04T04:45:04;24.43;;;14.07;;
5379;SDS011;2713;42.680;23.310;2022-11-04T04:47:34;21.70;;;16.30;;
5379;SDS011;2713;42.680;23.310;2022-11-04T04:50:05;28.00;;;18.53;;
5379;SDS011;2713;42.680;23.310;2022-11-04T04:52:36;21.83;;;14.83;;
5379;SDS011;2713;42.680;23.310;2022-11-04T04:55:05;26.07;;;17.10;;
5379;SDS011;2713;42.680;23.310;2022-11-04T04:57:33;26.87;;;16.53;;
5379;SDS011;2713;42.680;23.310;2022-11-04T05:00:00;27.30;;;16.93;;
5379;SDS011;2713;42.680;23.310;2022-11-04T05:02:27;25.60;;;18.23;;
5379;SDS011;2713;42.680;23.310;2022-11-04T05:04:54;24.87;;;16.27;;
5379;SDS011;2713;42.680;23.310;2022-11-04T05:07:21;24.93;;;15.57;;
5379;SDS011;2713;42.680;23.310;2022-11-04T05:09:49;28.80;;;16.53;;
5379;SDS011;2713;42.680;23.310;2022-11-04T05:12:17;22.37;;;16.10;;
5379;SDS011;2713;42.680;23.310;2022-11-04T05:14:44;22.40;;;16.60;;
5379;SDS011;2713;42.680;23.310;2022-11-04T05:17:11;23.87;;;15.30;;
5379;SDS011;2713;42.680;23.310;2022-11-04T05:19:37;26.13;;;14.53;;
5379;SDS011;2713;42.680;23.310;2022-11-04T05:22:05;23.00;;;15.60;;
5379;SDS011;2713;42.680;23.310;2022-11-04T05:24:32;21.80;;;16.00;;
5379;SDS011;2713;42.680;23.310;2022-11-04T05:27:00;23.80;;;16.20;;
5379;SDS011;2713;42.680;23.310;2022-11-04T05:29:27;24.93;;;16.90;;
5379;SDS011;2713;42.680;23.310;2022-11-04T05:31:54;21.90;;;14.77;;
5379;SDS011;2713;42.680;23.310;2022-11-04T05:34:21;29.50;;;17.07;;
5379;SDS011;2713;42.680;23.310;2022-11-04T05:36:47;28.33;;;18.00;;
5379;SDS011;2713;42.680;23.310;2022-11-04T05:39:14;24.33;;;18.37;;
5379;SDS011;2713;42.680;23.310;2022-11-04T05:41:41;27.23;;;19.10;;
5379;SDS011;2713;42.680;23.310;2022-11-04T05:44:09;28.07;;;18.20;;
5379;SDS011;2713;42.680;23.310;2022-11-04T05:46:36;30.90;;;19.27;;
5379;SDS011;2713;42.680;23.310;2022-11-04T05:49:03;26.13;;;18.77;;
5379;SDS011;2713;42.680;23.310;2022-11-04T05:51:30;33.13;;;19.73;;
5379;SDS011;2713;42.680;23.310;2022-11-04T05:53:57;28.77;;;19.03;;
5379;SDS011;2713;42.680;23.310;2022-11-04T05:56:24;28.20;;;18.00;;
5379;SDS011;2713;42.680;23.310;2022-11-04T05:58:51;30.97;;;20.20;;
5379;SDS011;2713;42.680;23.310;2022-11-04T06:01:27;25.20;;;18.20;;
5379;SDS011;2713;42.680;23.310;2022-11-04T06:03:56;24.13;;;18.20;;
5379;SDS011;2713;42.680;23.310;2022-11-04T06:06:24;27.50;;;18.80;;
5379;SDS011;2713;42.680;23.310;2022-11-04T06:08:52;24.90;;;19.27;;
5379;SDS011;2713;42.680;23.310;2022-11-04T06:11:19;28.23;;;18.50;;
5379;SDS011;2713;42.680;23.310;2022-11-04T06:13:48;32.83;;;18.77;;
5379;SDS011;2713;42.680;23.310;2022-11-04T06:16:15;24.60;;;18.63;;
5379;SDS011;2713;42.680;23.310;2022-11-04T06:18:43;24.17;;;18.07;;
5379;SDS011;2713;42.680;23.310;2022-11-04T06:21:18;31.77;;;20.00;;
5379;SDS011;2713;42.680;23.310;2022-11-04T06:23:49;32.80;;;20.00;;
5379;SDS011;2713;42.680;23.310;2022-11-04T06:26:16;27.13;;;19.40;;
5379;SDS011;2713;42.680;23.310;2022-11-04T06:28:44;26.87;;;18.67;;
5379;SDS011;2713;42.680;23.310;2022-11-04T06:31:11;27.53;;;18.37;;
5379;SDS011;2713;42.680;23.310;2022-11-04T06:33:39;25.07;;;18.40;;
5379;SDS011;2713;42.680;23.310;2022-11-04T06:36:09;28.23;;;18.77;;
5379;SDS011;2713;42.680;23.310;2022-11-04T06:38:37;27.27;;;19.03;;
5379;SDS011;2713;42.680;23.310;2022-11-04T06:41:05;26.83;;;19.17;;
5379;SDS011;2713;42.680;23.310;2022-11-04T06:43:32;31.30;;;21.40;;
5379;SDS011;2713;42.680;23.310;2022-11-04T06:46:00;26.93;;;19.70;;
5379;SDS011;2713;42.680;23.310;2022-11-04T06:48:27;30.90;;;19.97;;
5379;SDS011;2713;42.680;23.310;2022-11-04T06:50:55;31.33;;;19.37;;
5379;SDS011;2713;42.680;23.310;2022-11-04T06:53:24;35.33;;;21.47;;
5379;SDS011;2713;42.680;23.310;2022-11-04T06:55:51;32.90;;;21.53;;
5379;SDS011;2713;42.680;23.310;2022-11-04T06:58:19;32.00;;;20.73;;
5379;SDS011;2713;42.680;23.310;2022-11-04T07:00:50;35.27;;;22.07;;
5379;SDS011;2713;42.680;23.310;2022-11-04T07:03:17;23.90;;;16.67;;
5379;SDS011;2713;42.680;23.310;2022-11-04T07:05:45;36.20;;;22.57;;
5379;SDS011;2713;42.680;23.310;2022-11-04T07:08:12;31.73;;;21.87;;
5379;SDS011;2713;42.680;23.310;2022-11-04T07:10:40;35.17;;;23.67;;
5379;SDS011;2713;42.680;23.310;2022-11-04T07:13:07;36.87;;;21.37;;
5379;SDS011;2713;42.680;23.310;2022-11-04T07:15:36;41.27;;;22.73;;
5379;SDS011;2713;42.680;23.310;2022-11-04T07:18:03;34.17;;;23.23;;
5379;SDS011;2713;42.680;23.310;2022-11-04T07:20:31;35.70;;;23.63;;
5379;SDS011;2713;42.680;23.310;2022-11-04T07:22:57;32.33;;;22.40;;
5379;SDS011;2713;42.680;23.310;2022-11-04T07:25:24;31.30;;;21.93;;
5379;SDS011;2713;42.680;23.310;2022-11-04T07:27:52;33.43;;;23.27;;
5379;SDS011;2713;42.680;23.310;2022-11-04T07:30:19;35.80;;;22.47;;
5379;SDS011;2713;42.680;23.310;2022-11-04T07:32:46;37.03;;;22.47;;
5379;SDS011;2713;42.680;23.310;2022-11-04T07:35:13;38.93;;;23.00;;
5379;SDS011;2713;42.680;23.310;2022-11-04T07:37:40;39.23;;;23.80;;
5379;SDS011;2713;42.680;23.310;2022-11-04T07:40:07;31.10;;;22.30;;
5379;SDS011;2713;42.680;23.310;2022-11-04T07:42:35;39.97;;;24.37;;
5379;SDS011;2713;42.680;23.310;2022-11-04T07:45:07;46.07;;;27.83;;
5379;SDS011;2713;42.680;23.310;2022-11-04T07:47:35;45.00;;;28.10;;
5379;SDS011;2713;42.680;23.310;2022-11-04T07:50:02;35.13;;;24.47;;
5379;SDS011;2713;42.680;23.310;2022-11-04T07:52:30;36.77;;;23.80;;
5379;SDS011;2713;42.680;23.310;2022-11-04T07:54:57;40.37;;;24.20;;
5379;SDS011;2713;42.680;23.310;2022-11-04T07:57:25;39.50;;;22.63;;
5379;SDS011;2713;42.680;23.310;2022-11-04T07:59:52;31.03;;;22.53;;
5379;SDS011;2713;42.680;23.310;2022-11-04T08:02:20;34.77;;;23.53;;
5379;SDS011;2713;42.680;23.310;2022-11-04T08:04:47;32.90;;;23.33;;
5379;SDS011;2713;42.680;23.310;2022-11-04T08:07:15;32.63;;;23.20;;
5379;SDS011;2713;42.680;23.310;2022-11-04T08:09:41;33.90;;;23.50;;
5379;SDS011;2713;42.680;23.310;2022-11-04T08:12:08;39.33;;;28.30;;
5379;SDS011;2713;42.680;23.310;2022-11-04T08:14:36;38.20;;;26.13;;
5379;SDS011;2713;42.680;23.310;2022-11-04T08:17:02;35.13;;;25.00;;
5379;SDS011;2713;42.680;23.310;2022-11-04T08:19:31;34.40;;;23.77;;
5379;SDS011;2713;42.680;23.310;2022-11-04T08:21:57;31.23;;;22.90;;
5379;SDS011;2713;42.680;23.310;2022-11-04T08:24:24;36.90;;;23.20;;
5379;SDS011;2713;42.680;23.310;2022-11-04T08:26:51;31.60;;;22.10;;
5379;SDS011;2713;42.680;23.310;2022-11-04T08:29:18;37.17;;;23.10;;
5379;SDS011;2713;42.680;23.310;2022-11-04T08:31:45;33.27;;;22.60;;
5379;SDS011;2713;42.680;23.310;2022-11-04T08:34:12;32.67;;;21.70;;
5379;SDS011;2713;42.680;23.310;2022-11-04T08:36:43;32.23;;;22.90;;
5379;SDS011;2713;42.680;23.310;2022-11-04T08:39:11;48.10;;;31.50;;
5379;SDS011;2713;42.680;23.310;2022-11-04T08:41:41;40.90;;;28.80;;
5379;SDS011;2713;42.680;23.310;2022-11-04T08:44:10;29.80;;;22.10;;
5379;SDS011;2713;42.680;23.310;2022-11-04T08:46:39;32.50;;;21.70;;
5379;SDS011;2713;42.680;23.310;2022-11-04T08:49:07;31.40;;;22.70;;
5379;SDS011;2713;42.680;23.310;2022-11-04T08:51:34;39.17;;;22.67;;
5379;SDS011;2713;42.680;23.310;2022-11-04T08:54:04;32.23;;;22.40;;
5379;SDS011;2713;42.680;23.310;2022-11-04T08:56:32;28.97;;;21.90;;
5379;SDS011;2713;42.680;23.310;2022-11-04T08:59:00;35.10;;;23.80;;
5379;SDS011;2713;42.680;23.310;2022-11-04T09:01:30;34.63;;;22.40;;
5379;SDS011;2713;42.680;23.310;2022-11-04T09:03:58;34.27;;;21.87;;
5379;SDS011;2713;42.680;23.310;2022-11-04T09:06:26;33.13;;;21.40;;
5379;SDS011;2713;42.680;23.310;2022-11-04T09:08:54;29.37;;;22.03;;
5379;SDS011;2713;42.680;23.310;2022-11-04T09:11:29;31.83;;;23.07;;
5379;SDS011;2713;42.680;23.310;2022-11-04T09:13:58;32.43;;;21.30;;
5379;SDS011;2713;42.680;23.310;2022-11-04T09:16:26;40.13;;;23.70;;
5379;SDS011;2713;42.680;23.310;2022-11-04T09:18:54;32.43;;;22.47;;
5379;SDS011;2713;42.680;23.310;2022-11-04T09:21:22;30.77;;;22.03;;
5379;SDS011;2713;42.680;23.310;2022-11-04T09:23:49;37.27;;;21.47;;
5379;SDS011;2713;42.680;23.310;2022-11-04T09:26:16;29.50;;;21.77;;
5379;SDS011;2713;42.680;23.310;2022-11-04T09:28:45;29.30;;;20.40;;
5379;SDS011;2713;42.680;23.310;2022-11-04T09:31:12;30.50;;;21.30;;
5379;SDS011;2713;42.680;23.310;2022-11-04T09:33:40;30.10;;;20.70;;
5379;SDS011;2713;42.680;23.310;2022-11-04T09:36:07;30.07;;;20.43;;
5379;SDS011;2713;42.680;23.310;2022-11-04T09:38:35;35.07;;;21.37;;
5379;SDS011;2713;42.680;23.310;2022-11-04T09:41:07;30.03;;;20.83;;
5379;SDS011;2713;42.680;23.310;2022-11-04T09:43:40;27.97;;;19.40;;
5379;SDS011;2713;42.680;23.310;2022-11-04T09:46:17;31.83;;;21.73;;
5379;SDS011;2713;42.680;23.310;2022-11-04T09:48:46;27.13;;;18.53;;
5379;SDS011;2713;42.680;23.310;2022-11-04T09:51:16;32.73;;;21.93;;
5379;SDS011;2713;42.680;23.310;2022-11-04T09:53:45;32.80;;;21.37;;
5379;SDS011;2713;42.680;23.310;2022-11-04T09:56:14;27.37;;;20.40;;
5379;SDS011;2713;42.680;23.310;2022-11-04T09:58:46;37.10;;;23.70;;
5379;SDS011;2713;42.680;23.310;2022-11-04T10:01:19;30.87;;;22.67;;
5379;SDS011;2713;42.680;23.310;2022-11-04T10:03:58;32.43;;;21.67;;
5379;SDS011;2713;42.680;23.310;2022-11-04T10:06:36;30.83;;;21.43;;
5379;SDS011;2713;42.680;23.310;2022-11-04T10:09:14;33.33;;;20.33;;
5379;SDS011;2713;42.680;23.310;2022-11-04T10:11:56;32.30;;;20.43;;
5379;SDS011;2713;42.680;23.310;2022-11-04T10:14:42;26.93;;;20.00;;
5379;SDS011;2713;42.680;23.310;2022-11-04T10:17:22;35.37;;;22.80;;
5379;SDS011;2713;42.680;23.310;2022-11-04T10:20:09;30.33;;;20.20;;
5379;SDS011;2713;42.680;23.310;2022-11-04T10:22:49;36.60;;;21.10;;
5379;SDS011;2713;42.680;23.310;2022-11-04T10:25:23;30.90;;;20.10;;
5379;SDS011;2713;42.680;23.310;2022-11-04T10:27:54;30.43;;;20.00;;
5379;SDS011;2713;42.680;23.310;2022-11-04T10:30:22;34.90;;;20.57;;
5379;SDS011;2713;42.680;23.310;2022-11-04T10:32:52;38.63;;;19.47;;
5379;SDS011;2713;42.680;23.310;2022-11-04T10:35:29;41.30;;;20.47;;
5379;SDS011;2713;42.680;23.310;2022-11-04T10:38:13;29.90;;;19.73;;
5379;SDS011;2713;42.680;23.310;2022-11-04T10:40:44;26.33;;;18.13;;
5379;SDS011;2713;42.680;23.310;2022-11-04T10:43:15;29.10;;;17.53;;
5379;SDS011;2713;42.680;23.310;2022-11-04T10:45:47;22.20;;;16.70;;
5379;SDS011;2713;42.680;23.310;2022-11-04T10:48:27;24.20;;;16.63;;
5379;SDS011;2713;42.680;23.310;2022-11-04T10:51:01;31.33;;;18.07;;
5379;SDS011;2713;42.680;23.310;2022-11-04T10:53:28;30.87;;;15.07;;
5379;SDS011;2713;42.680;23.310;2022-11-04T10:55:58;29.10;;;16.50;;
5379;SDS011;2713;42.680;23.310;2022-11-04T10:58:31;31.57;;;18.20;;
5379;SDS011;2713;42.680;23.310;2022-11-04T11:01:20;22.13;;;16.27;;
5379;SDS011;2713;42.680;23.310;2022-11-04T11:03:49;25.33;;;18.57;;
5379;SDS011;2713;42.680;23.310;2022-11-04T11:06:19;24.87;;;16.60;;
5379;SDS011;2713;42.680;23.310;2022-11-04T11:08:51;27.40;;;18.07;;
5379;SDS011;2713;42.680;23.310;2022-11-04T11:11:33;25.83;;;17.13;;
5379;SDS011;2713;42.680;23.310;2022-11-04T11:14:02;23.40;;;17.20;;
5379;SDS011;2713;42.680;23.310;2022-11-04T11:16:30;32.53;;;19.90;;
5379;SDS011;2713;42.680;23.310;2022-11-04T11:19:07;24.60;;;18.40;;
5379;SDS011;2713;42.680;23.310;2022-11-04T11:21:41;28.67;;;19.93;;
5379;SDS011;2713;42.680;23.310;2022-11-04T11:24:13;21.13;;;15.30;;
5379;SDS011;2713;42.680;23.310;2022-11-04T11:26:42;21.03;;;15.00;;
5379;SDS011;2713;42.680;23.310;2022-11-04T11:29:14;23.57;;;16.23;;
5379;SDS011;2713;42.680;23.310;2022-11-04T11:31:48;23.47;;;15.50;;
5379;SDS011;2713;42.680;23.310;2022-11-04T11:34:18;27.67;;;16.77;;
5379;SDS011;2713;42.680;23.310;2022-11-04T11:36:50;23.13;;;16.90;;
5379;SDS011;2713;42.680;23.310;2022-11-04T11:39:19;24.00;;;15.20;;
5379;SDS011;2713;42.680;23.310;2022-11-04T11:41:49;21.60;;;14.80;;
5379;SDS011;2713;42.680;23.310;2022-11-04T11:44:20;22.47;;;15.50;;
5379;SDS011;2713;42.680;23.310;2022-11-04T11:46:53;29.60;;;16.77;;
5379;SDS011;2713;42.680;23.310;2022-11-04T11:49:26;22.60;;;14.97;;
5379;SDS011;2713;42.680;23.310;2022-11-04T11:51:55;24.63;;;15.87;;
5379;SDS011;2713;42.680;23.310;2022-11-04T11:54:49;26.20;;;15.10;;
5379;SDS011;2713;42.680;23.310;2022-11-04T11:57:23;22.17;;;15.47;;
5379;SDS011;2713;42.680;23.310;2022-11-04T12:00:02;25.23;;;14.30;;
5379;SDS011;2713;42.680;23.310;2022-11-04T12:02:42;21.50;;;15.17;;
5379;SDS011;2713;42.680;23.310;2022-11-04T12:05:13;22.63;;;14.40;;
5379;SDS011;2713;42.680;23.310;2022-11-04T12:07:45;23.13;;;14.30;;
5379;SDS011;2713;42.680;23.310;2022-11-04T12:10:21;25.83;;;15.10;;
5379;SDS011;2713;42.680;23.310;2022-11-04T12:12:59;22.17;;;13.87;;
5379;SDS011;2713;42.680;23.310;2022-11-04T12:15:36;18.93;;;13.60;;
5379;SDS011;2713;42.680;23.310;2022-11-04T12:18:20;20.20;;;14.00;;
5379;SDS011;2713;42.680;23.310;2022-11-04T12:21:05;20.70;;;13.10;;
5379;SDS011;2713;42.680;23.310;2022-11-04T12:23:38;18.90;;;13.20;;
5379;SDS011;2713;42.680;23.310;2022-11-04T12:26:15;21.50;;;15.60;;
5379;SDS011;2713;42.680;23.310;2022-11-04T12:28:53;23.47;;;14.57;;
5379;SDS011;2713;42.680;23.310;2022-11-04T12:31:30;18.77;;;13.10;;
5379;SDS011;2713;42.680;23.310;2022-11-04T12:34:07;24.00;;;12.80;;
5379;SDS011;2713;42.680;23.310;2022-11-04T12:36:44;28.23;;;14.07;;
5379;SDS011;2713;42.680;23.310;2022-11-04T12:39:26;19.27;;;13.07;;
5379;SDS011;2713;42.680;23.310;2022-11-04T12:42:10;18.43;;;13.27;;
5379;SDS011;2713;42.680;23.310;2022-11-04T12:44:44;17.33;;;12.07;;
5379;SDS011;2713;42.680;23.310;2022-11-04T12:47:19;16.53;;;11.40;;
5379;SDS011;2713;42.680;23.310;2022-11-04T12:50:07;17.93;;;10.93;;
5379;SDS011;2713;42.680;23.310;2022-11-04T12:52:56;18.27;;;12.63;;
5379;SDS011;2713;42.680;23.310;2022-11-04T12:55:38;24.77;;;12.80;;
5379;SDS011;2713;42.680;23.310;2022-11-04T12:58:16;16.70;;;11.40;;
5379;SDS011;2713;42.680;23.310;2022-11-04T13:01:00;23.33;;;12.57;;
5379;SDS011;2713;42.680;23.310;2022-11-04T13:03:32;18.67;;;12.60;;
5379;SDS011;2713;42.680;23.310;2022-11-04T13:06:09;20.10;;;14.03;;
5379;SDS011;2713;42.680;23.310;2022-11-04T13:08:42;22.93;;;14.17;;
5379;SDS011;2713;42.680;23.310;2022-11-04T13:11:13;21.57;;;13.60;;
5379;SDS011;2713;42.680;23.310;2022-11-04T13:13:49;19.27;;;13.83;;
5379;SDS011;2713;42.680;23.310;2022-11-04T13:16:23;26.23;;;14.00;;
5379;SDS011;2713;42.680;23.310;2022-11-04T13:18:51;22.33;;;12.57;;
5379;SDS011;2713;42.680;23.310;2022-11-04T13:21:20;21.20;;;12.90;;
5379;SDS011;2713;42.680;23.310;2022-11-04T13:23:53;18.83;;;13.40;;
5379;SDS011;2713;42.680;23.310;2022-11-04T13:26:25;19.87;;;13.57;;
5379;SDS011;2713;42.680;23.310;2022-11-04T13:28:54;23.57;;;13.73;;
5379;SDS011;2713;42.680;23.310;2022-11-04T13:31:30;20.20;;;14.20;;
5379;SDS011;2713;42.680;23.310;2022-11-04T13:34:07;22.00;;;13.10;;
5379;SDS011;2713;42.680;23.310;2022-11-04T13:36:42;19.70;;;13.10;;
5379;SDS011;2713;42.680;23.310;2022-11-04T13:39:14;17.23;;;13.63;;
5379;SDS011;2713;42.680;23.310;2022-11-04T13:44:37;17.87;;;12.83;;
5379;SDS011;2713;42.680;23.310;2022-11-04T13:47:12;26.83;;;14.13;;
5379;SDS011;2713;42.680;23.310;2022-11-04T13:49:46;25.97;;;14.30;;
5379;SDS011;2713;42.680;23.310;2022-11-04T13:52:16;20.40;;;12.97;;
5379;SDS011;2713;42.680;23.310;2022-11-04T13:54:44;24.77;;;13.83;;
5379;SDS011;2713;42.680;23.310;2022-11-04T13:57:18;20.03;;;13.50;;
5379;SDS011;2713;42.680;23.310;2022-11-04T14:02:43;25.20;;;13.47;;
5379;SDS011;2713;42.680;23.310;2022-11-04T14:08:19;24.53;;;14.13;;
5379;SDS011;2713;42.680;23.310;2022-11-04T14:10:59;22.07;;;13.50;;
5379;SDS011;2713;42.680;23.310;2022-11-04T14:13:59;32.30;;;15.63;;
5379;SDS011;2713;42.680;23.310;2022-11-04T14:16:38;20.90;;;14.07;;
5379;SDS011;2713;42.680;23.310;2022-11-04T14:25:25;28.80;;;14.47;;
5379;SDS011;2713;42.680;23.310;2022-11-04T14:27:55;20.80;;;14.97;;
5379;SDS011;2713;42.680;23.310;2022-11-04T14:33:18;19.10;;;14.00;;
5379;SDS011;2713;42.680;23.310;2022-11-04T14:35:49;20.70;;;14.00;;
5379;SDS011;2713;42.680;23.310;2022-11-04T14:38:21;21.57;;;14.73;;
5379;SDS011;2713;42.680;23.310;2022-11-04T14:43:41;21.50;;;14.00;;
5379;SDS011;2713;42.680;23.310;2022-11-04T14:46:11;16.73;;;13.30;;
5379;SDS011;2713;42.680;23.310;2022-11-04T14:48:46;20.67;;;14.33;;
5379;SDS011;2713;42.680;23.310;2022-11-04T14:51:21;19.00;;;13.90;;
5379;SDS011;2713;42.680;23.310;2022-11-04T14:53:51;21.13;;;14.10;;
5379;SDS011;2713;42.680;23.310;2022-11-04T14:56:23;22.67;;;14.40;;
5379;SDS011;2713;42.680;23.310;2022-11-04T14:58:53;24.07;;;14.50;;
5379;SDS011;2713;42.680;23.310;2022-11-04T15:01:22;23.33;;;15.10;;
5379;SDS011;2713;42.680;23.310;2022-11-04T15:03:49;21.50;;;15.40;;
5379;SDS011;2713;42.680;23.310;2022-11-04T15:06:22;24.53;;;15.27;;
5379;SDS011;2713;42.680;23.310;2022-11-04T15:08:50;23.70;;;15.85;;
5379;SDS011;2713;42.680;23.310;2022-11-04T15:11:18;22.80;;;15.30;;
5379;SDS011;2713;42.680;23.310;2022-11-04T15:14:08;26.90;;;15.23;;
5379;SDS011;2713;42.680;23.310;2022-11-04T15:16:39;20.63;;;15.33;;
5379;SDS011;2713;42.680;23.310;2022-11-04T15:19:08;24.20;;;16.13;;
5379;SDS011;2713;42.680;23.310;2022-11-04T15:21:38;24.40;;;16.43;;
5379;SDS011;2713;42.680;23.310;2022-11-04T15:24:08;24.63;;;14.43;;